Alcova, WY

12:11 PM MDT on June 03, 2015 (GMT -0600)
Natrona County International | | Change Station
CLOSE
Current Station
Airport
Location: Casper,
Elevation: 5289 ft
Nearby Weather Stations
Active Advisory: Flood Warning

Elev 5289 ft 42.90 °N, 106.47 °W | Updated 18 minutes ago

Clear
Clear
68 °F
Feels Like 68 °F
N
7
Wind Variable Wind from North

Today
High -- | Low -- °F
--% Chance of Precip.
Yesterday
High -- | Low -- °F
Precip. -- in
5:32 AM 8:39 PM
Full, 99% visible
Pressure 29.88 in
Visibility 10.0 miles
Clouds Clear
Dew Point 52 °F
Humidity 56%
Rainfall 0.00 in
Snow Depth Not available.
UV 11 out of 12
Pollen 5.70 out of 12
Air Quality Not available.
Flu Activity Sporadic
METAR KCPR 031753Z 35006KT 10SM CLR 20/11 A3001 RMK AO2 SLP119 T02000111 10200 20111 58010

More Conditions Fewer Conditions

Pressure 29.88 in
Visibility 10.0 miles
Clouds Clear
Dew Point 52 °F
Humidity 56%
Rainfall 0.00 in
Snow Depth Not available.
UV 11 out of 12
Pollen 5.70 out of 12
Air Quality Not available.
Flu Activity Sporadic
METAR KCPR 031753Z 35006KT 10SM CLR 20/11 A3001 RMK AO2 SLP119 T02000111 10200 20111 58010

More Conditions Fewer Conditions

10-Day Weather Forecast

×

Almanac

Astronomy

Jun. 03, 2015 Rise Set
Actual Time
Civil Twilight
Nautical Twilight
Astronomical Twilight
Moon
Length of Visible Light
Length of Day
Tomorrow will be .
, % of the Moon is Illuminated

Today's Extremes

State Highs State Lows

Community

WunderPhotos

Upload Photos

1,826,268 photos uploaded!

WunderBlogs® & News

Nearby

Air Quality

  Air Quality AQ Index Pollutant
Not available.

Snow Depth

Station Depth Elevation

Earthquake Activity

City Distance Mag. Time & Date
Minimum magnitude displayed is 2.5.

Coastal Water Temperatures

Place Temperature

Stations

Nearby Weather Stations

Station Location Temp. Windchill Dew Point Humidity Wind Precip. Elev Updated Type
                   
Flood Warning
Statement as of 9:13 AM MDT on June 03, 2015

* Flood Warning continues for
the Wind River at Riverton
* the stage will rise again near flood stage of 9.0 feet at 10 PM
Wednesday.
* The river will slowly recede in the Thursday through Friday.



Flood impacts and crest history information is displayed at:
http://water.Weather.Gov/ahps2/index.Php?Wfo=riw&gage=wdrw4

* impact... at 9.0 feet... flood stage. Minor flooding along the right
and left banks upstream of the Highway 789 bridge. Agricultural
flooding downstream of Riverton near the black bridge and Hidden
Valley area intensifies..
* impact... at 8.0 feet... bankfull stage. Minor flooding downstream
along left bank near black bridge begins..
* flood history... this crest compares to a previous crest of 9.0 feet
on Jun 24 1965.


Lat... Lon 4306 10848 4299 10848 4301 10828 4315 10828
      4309 10835